Portada
METAR-TAF:

METAR-TAF

Aeroports :

Nakashibetsu, Japó

latitud: 43-34N, longitud: 144-58E, altitud: 66 m

Observació

L'informe es va fer fa 56 minuts, a les 00:00 UTC
Vent 10 kt del Sud-Oest
Temperatura 0°C
Humitat 69%
Pressió 1017 hPa
Visibilitat 10 km o més
Escasses núvols a una alçada de 2000 ft
Núvols disperses a una alçada de 3500 ft

METAR: RJCN 200000Z 23010KT 9999 FEW020 SCT035 M00/M05 Q1017

Hora: 09:56 (00:56 UTC)


TAF: manca

Observacions i pronòstics meteorològics de més de 4000 aeroports (METAR i TAF).

Les estacions disponibles són els punts grocs i vermells al mapa.

Posi el ratolí al punt desitjat per veure el nom de l'estació.

Feu clic per veure les observacions i els pronòstics meteorològics.

Per canviar el mapa: feu clic els botons verds amb una creu de color negre per apropar; al botó verd amb un guió per allunyar la imatge; o en les fletxes verdes per a mapes adjacents.


METAR-TAF: